createdAt,value
2018-06-08T00:00:45.834Z,88.21
2018-06-08T00:03:50.123Z,88.56
2018-06-08T00:06:54.485Z,88.88
2018-06-08T00:09:58.745Z,88.96
2018-06-08T00:13:03.073Z,88.78
2018-06-08T00:16:07.449Z,88.41
2018-06-08T00:19:11.729Z,88.39
2018-06-08T00:22:16.037Z,88.56
2018-06-08T00:25:20.350Z,88.65
2018-06-08T00:28:24.649Z,89.85
2018-06-08T00:31:28.969Z,90.22
2018-06-08T00:34:33.118Z,91.31
2018-06-08T00:37:37.408Z,91.65
2018-06-08T00:40:41.759Z,91.72
2018-06-08T00:43:46.035Z,91.86
2018-06-08T00:46:50.296Z,91.78
2018-06-08T00:49:54.575Z,91.85
2018-06-08T00:52:58.900Z,92.22
2018-06-08T00:56:03.213Z,92.55
2018-06-08T00:59:07.553Z,92.96
2018-06-08T01:02:11.856Z,93.35
2018-06-08T01:05:16.177Z,92.86
2018-06-08T01:08:20.490Z,91.73
2018-06-08T01:11:24.699Z,90.84
2018-06-08T01:14:33.680Z,91.21
2018-06-08T01:17:37.922Z,91.92
2018-06-08T01:20:42.201Z,91.66
2018-06-08T01:23:46.474Z,91.65
2018-06-08T01:26:50.814Z,92.22
2018-06-08T01:29:55.067Z,92.47
2018-06-08T01:32:59.352Z,92.53
2018-06-08T01:36:03.622Z,92.66
2018-06-08T01:39:09.891Z,93.18
2018-06-08T01:42:14.158Z,92.74
2018-06-08T01:45:18.442Z,93.56
2018-06-08T01:48:22.697Z,93.33
2018-06-08T01:51:26.957Z,93.84
2018-06-08T01:54:31.210Z,93.43
2018-06-08T01:57:35.519Z,92.78
2018-06-08T02:00:39.901Z,93.20
2018-06-08T02:03:44.139Z,92.64
2018-06-08T02:06:49.216Z,92.90
2018-06-08T02:09:53.529Z,92.72
2018-06-08T02:12:57.947Z,92.16
2018-06-08T02:16:02.385Z,92.70
2018-06-08T02:19:06.720Z,92.87
2018-06-08T02:22:11.206Z,93.63
2018-06-08T02:25:15.470Z,93.75
2018-06-08T02:28:19.725Z,92.70
2018-06-08T02:31:23.969Z,92.23
2018-06-08T02:34:28.293Z,91.98
2018-06-08T02:37:32.596Z,92.28
2018-06-08T02:40:36.922Z,92.43
2018-06-08T02:43:41.249Z,93.45
2018-06-08T02:46:45.570Z,93.55
2018-06-08T02:49:49.892Z,93.49
2018-06-08T02:52:54.164Z,93.70
2018-06-08T02:55:58.536Z,94.13
2018-06-08T02:59:02.862Z,93.79
2018-06-08T03:02:07.121Z,92.94
2018-06-08T03:05:11.374Z,91.64
2018-06-08T03:08:15.664Z,91.26
2018-06-08T03:11:20.112Z,92.04
2018-06-08T03:14:24.436Z,92.09
2018-06-08T03:17:28.664Z,91.94
2018-06-08T03:20:33.032Z,90.74
2018-06-08T03:23:37.285Z,89.52
2018-06-08T03:26:41.556Z,89.03
2018-06-08T03:29:45.801Z,87.17
2018-06-08T03:32:50.145Z,85.74
2018-06-08T03:35:54.542Z,85.30
2018-06-08T03:38:58.806Z,85.28
2018-06-08T03:42:03.109Z,85.42
2018-06-08T03:45:07.443Z,83.88
2018-06-08T03:48:11.716Z,82.68
2018-06-08T03:51:16.065Z,81.59
2018-06-08T03:54:20.383Z,80.94
2018-06-08T03:57:24.652Z,81.90
2018-06-08T04:00:29.030Z,80.51
2018-06-08T04:03:34.001Z,81.12
2018-06-08T04:06:58.837Z,81.62
2018-06-08T04:10:03.081Z,81.36
2018-06-08T04:13:07.408Z,82.67
2018-06-08T04:16:11.522Z,83.93
2018-06-08T04:19:15.821Z,85.93
2018-06-08T04:22:20.139Z,86.60
2018-06-08T04:25:24.466Z,87.44
2018-06-08T04:28:28.776Z,88.12
2018-06-08T04:31:33.088Z,89.04
2018-06-08T04:34:37.336Z,90.28
2018-06-08T04:37:41.474Z,91.13
2018-06-08T04:40:45.737Z,90.54
2018-06-08T04:43:50.083Z,91.04
2018-06-08T04:46:54.400Z,91.59
2018-06-08T04:49:58.710Z,91.15
2018-06-08T04:53:03.043Z,91.89
2018-06-08T04:56:07.354Z,92.11
2018-06-08T04:59:11.679Z,92.06
2018-06-08T05:02:15.985Z,91.82
2018-06-08T05:05:20.303Z,91.89
2018-06-08T05:08:24.655Z,92.36
2018-06-08T05:11:28.936Z,90.93
2018-06-08T05:14:33.256Z,89.68
2018-06-08T05:17:37.517Z,88.79
2018-06-08T05:20:41.768Z,89.27
2018-06-08T05:23:46.227Z,88.42
2018-06-08T05:26:50.532Z,88.09
2018-06-08T05:29:54.840Z,87.58
2018-06-08T05:32:59.186Z,87.80
2018-06-08T05:36:03.500Z,86.39
2018-06-08T05:39:09.708Z,84.78
2018-06-08T05:42:13.981Z,84.21
2018-06-08T05:45:18.244Z,82.28
2018-06-08T05:48:22.552Z,79.88
2018-06-08T05:51:26.952Z,79.99
2018-06-08T05:54:31.241Z,80.70
2018-06-08T05:57:35.567Z,79.97
2018-06-08T06:00:39.888Z,81.53
2018-06-08T06:03:44.211Z,80.55
2018-06-08T06:06:48.509Z,79.68
2018-06-08T06:09:52.877Z,76.52
2018-06-08T06:12:57.165Z,77.84
2018-06-08T06:16:01.502Z,78.37
2018-06-08T06:19:05.748Z,77.55
2018-06-08T06:22:10.035Z,76.96
2018-06-08T06:25:14.297Z,74.71
2018-06-08T06:28:18.672Z,74.43
2018-06-08T06:31:22.962Z,73.53
2018-06-08T06:34:27.658Z,72.60
2018-06-08T06:37:32.026Z,72.78
2018-06-08T06:40:36.344Z,72.22
2018-06-08T06:43:40.642Z,70.68
2018-06-08T06:46:45.017Z,70.46
2018-06-08T06:49:49.309Z,69.87
2018-06-08T06:52:53.652Z,67.29
2018-06-08T06:55:57.917Z,67.67
2018-06-08T06:59:02.262Z,69.65
2018-06-08T07:02:06.614Z,67.17
2018-06-08T07:05:10.919Z,65.84
2018-06-08T07:08:15.232Z,65.99
2018-06-08T07:11:19.541Z,66.06
2018-06-08T07:14:23.856Z,61.40
2018-06-08T07:17:28.117Z,62.02
2018-06-08T07:20:32.412Z,61.55
2018-06-08T07:23:36.717Z,61.31
2018-06-08T07:26:40.972Z,59.15
2018-06-08T07:29:45.226Z,57.64
2018-06-08T07:32:49.571Z,58.30
2018-06-08T07:35:53.700Z,58.12
2018-06-08T07:38:57.945Z,57.55
2018-06-08T07:42:02.286Z,51.04
2018-06-08T07:45:06.641Z,52.98
2018-06-08T07:48:11.041Z,52.47
2018-06-08T07:51:15.159Z,52.21
2018-06-08T07:54:19.522Z,51.78
2018-06-08T07:57:23.949Z,52.57
2018-06-08T08:00:28.364Z,51.38
2018-06-08T08:03:32.473Z,49.94
2018-06-08T08:06:36.781Z,50.66
2018-06-08T08:09:41.101Z,50.81
2018-06-08T08:12:45.416Z,50.83
2018-06-08T08:15:49.741Z,50.78
2018-06-08T08:18:54.044Z,51.51
2018-06-08T08:21:58.324Z,49.87
2018-06-08T08:25:02.632Z,50.06
2018-06-08T08:28:07.035Z,50.99
2018-06-08T08:31:11.465Z,50.32
2018-06-08T08:34:15.795Z,49.67
2018-06-08T08:37:20.046Z,50.78
2018-06-08T08:40:24.407Z,50.83
2018-06-08T08:43:28.704Z,50.85
2018-06-08T08:46:33.030Z,48.43
2018-06-08T08:49:37.314Z,47.10
2018-06-08T08:52:41.669Z,47.35
2018-06-08T08:55:45.939Z,47.64
2018-06-08T08:58:50.313Z,48.14
2018-06-08T09:01:54.599Z,48.33
2018-06-08T09:04:58.966Z,47.25
2018-06-08T09:08:03.247Z,48.14
2018-06-08T09:11:07.613Z,45.96
2018-06-08T09:14:11.871Z,46.98
2018-06-08T09:17:16.213Z,46.04
2018-06-08T09:20:20.558Z,46.38
2018-06-08T09:23:24.856Z,44.43
2018-06-08T09:26:29.194Z,42.70
2018-06-08T09:29:33.489Z,44.27
2018-06-08T09:32:37.888Z,42.45
2018-06-08T09:35:42.261Z,42.46
2018-06-08T09:38:46.515Z,42.83
2018-06-08T09:41:50.864Z,44.54
2018-06-08T09:44:55.210Z,43.77
2018-06-08T09:47:59.508Z,44.35
2018-06-08T09:51:03.633Z,44.80
2018-06-08T09:54:07.969Z,42.76
2018-06-08T09:57:12.204Z,43.76
2018-06-08T10:00:20.644Z,42.87
2018-06-08T10:03:25.018Z,42.07
2018-06-08T10:06:29.432Z,42.33
2018-06-08T10:09:33.479Z,41.25
2018-06-08T10:12:37.744Z,42.77
2018-06-08T10:15:42.074Z,41.56
2018-06-08T10:18:46.369Z,41.08
2018-06-08T10:21:50.716Z,42.03
2018-06-08T10:24:55.030Z,42.04
2018-06-08T10:27:59.341Z,41.36
2018-06-08T10:31:03.635Z,41.24
2018-06-08T10:34:07.940Z,42.37
2018-06-08T10:37:12.306Z,41.95
2018-06-08T10:40:16.634Z,40.08
2018-06-08T10:43:20.934Z,41.03
2018-06-08T10:46:25.198Z,41.03
2018-06-08T10:49:29.462Z,40.50
2018-06-08T10:52:33.722Z,41.98
2018-06-08T10:55:38.130Z,40.83
2018-06-08T10:58:42.282Z,42.18
2018-06-08T11:01:46.616Z,41.07
2018-06-08T11:04:50.923Z,43.33
2018-06-08T11:07:55.199Z,42.17
2018-06-08T11:10:59.508Z,42.19
2018-06-08T11:14:04.114Z,42.49
2018-06-08T11:17:08.449Z,41.48
2018-06-08T11:20:12.748Z,40.92
2018-06-08T11:23:17.046Z,40.66
2018-06-08T11:26:21.418Z,40.24
2018-06-08T11:29:25.728Z,41.56
2018-06-08T11:32:30.052Z,39.83
2018-06-08T11:35:34.375Z,39.72
2018-06-08T11:38:38.629Z,41.18
2018-06-08T11:41:42.931Z,40.06
2018-06-08T11:44:47.229Z,39.33
2018-06-08T11:47:51.413Z,39.91
2018-06-08T11:50:55.752Z,40.59
2018-06-08T11:54:00.081Z,39.90
2018-06-08T11:57:04.410Z,39.81
2018-06-08T12:00:08.668Z,40.40
2018-06-08T12:03:13.079Z,39.32
2018-06-08T12:06:17.339Z,38.78
2018-06-08T12:09:21.811Z,38.71
2018-06-08T12:12:26.094Z,38.62
2018-06-08T12:15:30.371Z,37.45
2018-06-08T12:18:34.727Z,37.05
2018-06-08T12:21:39.061Z,35.37
2018-06-08T12:24:43.382Z,36.38
2018-06-08T12:27:47.681Z,39.10
2018-06-08T12:30:52.042Z,37.29
2018-06-08T12:33:56.338Z,36.64
2018-06-08T12:37:00.671Z,37.85
2018-06-08T12:40:05.007Z,38.31
2018-06-08T12:43:09.307Z,34.60
2018-06-08T12:46:13.721Z,36.80
2018-06-08T12:49:18.005Z,36.55
2018-06-08T12:52:22.408Z,36.48
2018-06-08T12:55:26.701Z,36.86
2018-06-08T12:58:31.124Z,36.44
2018-06-08T13:01:35.428Z,37.33
2018-06-08T13:04:39.762Z,37.99
2018-06-08T13:07:44.057Z,39.27
2018-06-08T13:10:48.408Z,38.30
2018-06-08T13:13:52.790Z,38.56
2018-06-08T13:16:57.099Z,36.96
2018-06-08T13:20:01.451Z,36.32
2018-06-08T13:23:05.755Z,36.24
2018-06-08T13:26:10.061Z,38.05
2018-06-08T13:29:14.235Z,37.58
2018-06-08T13:32:18.496Z,36.06
2018-06-08T13:35:22.934Z,36.97
2018-06-08T13:38:27.270Z,37.10
2018-06-08T13:41:31.673Z,36.74
2018-06-08T13:44:36.086Z,35.91
2018-06-08T13:47:40.411Z,35.74
2018-06-08T13:50:44.721Z,36.25
2018-06-08T13:53:49.019Z,37.61
2018-06-08T13:56:53.356Z,36.12
2018-06-08T13:59:57.677Z,36.89
2018-06-08T14:03:01.997Z,37.10
2018-06-08T14:06:06.358Z,37.86
2018-06-08T14:09:10.647Z,36.78
2018-06-08T14:12:14.986Z,35.99
2018-06-08T14:15:19.315Z,37.95
2018-06-08T14:18:23.628Z,36.85
2018-06-08T14:21:27.916Z,36.25
2018-06-08T14:24:32.166Z,35.45
2018-06-08T14:27:36.487Z,36.62
2018-06-08T14:30:40.735Z,37.90
2018-06-08T14:33:44.996Z,36.19
2018-06-08T14:36:49.406Z,38.64
2018-06-08T14:39:53.677Z,38.50
2018-06-08T14:42:57.976Z,38.73
2018-06-08T14:46:02.277Z,37.90
2018-06-08T14:49:06.602Z,36.91
2018-06-08T14:52:10.877Z,36.43
2018-06-08T14:55:15.257Z,36.10
2018-06-08T14:58:19.553Z,37.72
2018-06-08T15:01:23.924Z,36.80
2018-06-08T15:04:28.217Z,36.24
2018-06-08T15:07:32.547Z,36.80
2018-06-08T15:10:36.865Z,35.07
2018-06-08T15:13:41.109Z,35.49
2018-06-08T15:16:45.388Z,38.05
2018-06-08T15:19:49.692Z,34.64
2018-06-08T15:22:53.936Z,34.62
2018-06-08T15:25:58.277Z,35.73
2018-06-08T15:29:02.605Z,37.70
2018-06-08T15:32:06.969Z,37.35
2018-06-08T15:35:11.241Z,35.92
2018-06-08T15:38:15.520Z,35.58
2018-06-08T15:41:19.803Z,35.58
2018-06-08T15:44:24.079Z,35.90
2018-06-08T15:47:28.353Z,32.92
2018-06-08T15:50:32.616Z,32.63
2018-06-08T15:53:36.947Z,33.22
2018-06-08T15:56:41.213Z,29.85
2018-06-08T15:59:45.529Z,31.20
2018-06-08T16:02:49.953Z,33.15
2018-06-08T16:05:54.262Z,31.76
2018-06-08T16:08:58.625Z,29.77
2018-06-08T16:12:02.917Z,31.53
2018-06-08T16:15:07.441Z,31.21
2018-06-08T16:18:11.872Z,31.55
2018-06-08T16:21:16.157Z,30.41
2018-06-08T16:24:20.475Z,30.83
2018-06-08T16:27:24.725Z,29.89
2018-06-08T16:30:29.025Z,32.08
2018-06-08T16:33:33.318Z,33.39
2018-06-08T16:36:37.660Z,36.20
2018-06-08T16:39:41.986Z,36.13
2018-06-08T16:42:46.291Z,38.42
2018-06-08T16:45:50.643Z,37.89
2018-06-08T16:48:54.979Z,38.68
2018-06-08T16:51:59.387Z,39.92
2018-06-08T16:55:03.707Z,40.46
2018-06-08T16:58:08.013Z,41.17
2018-06-08T17:01:12.326Z,40.72
2018-06-08T17:04:16.667Z,41.45
2018-06-08T17:07:21.100Z,41.44
2018-06-08T17:10:25.483Z,42.05
2018-06-08T17:13:29.805Z,43.19
2018-06-08T17:16:34.125Z,42.90
2018-06-08T17:19:38.466Z,43.43
2018-06-08T17:22:42.907Z,44.11
2018-06-08T17:25:47.141Z,44.69
2018-06-08T17:28:51.527Z,44.25
2018-06-08T17:31:55.833Z,44.20
2018-06-08T17:35:00.100Z,44.93
2018-06-08T17:38:04.500Z,45.00
2018-06-08T17:41:08.872Z,46.03
2018-06-08T17:44:13.232Z,44.77
2018-06-08T17:47:17.532Z,46.24
2018-06-08T17:50:21.860Z,45.88
2018-06-08T17:53:26.162Z,46.19
2018-06-08T17:56:30.602Z,47.50
2018-06-08T17:59:34.912Z,46.42
2018-06-08T18:02:39.226Z,48.57
2018-06-08T18:05:43.529Z,48.40
2018-06-08T18:08:47.847Z,49.66
2018-06-08T18:11:52.194Z,50.63
2018-06-08T18:14:56.508Z,51.52
2018-06-08T18:18:00.855Z,51.24
2018-06-08T18:21:05.252Z,51.67
2018-06-08T18:24:09.518Z,52.87
2018-06-08T18:27:13.948Z,53.74
2018-06-08T18:30:18.533Z,54.11
2018-06-08T18:33:22.920Z,54.22
2018-06-08T18:36:27.236Z,54.70
2018-06-08T18:39:31.539Z,53.94
2018-06-08T18:42:36.021Z,55.20
2018-06-08T18:45:40.336Z,55.28
2018-06-08T18:48:44.630Z,55.79
2018-06-08T18:51:48.938Z,55.79
2018-06-08T18:54:53.300Z,55.84
2018-06-08T18:57:57.726Z,55.98
2018-06-08T19:01:02.136Z,56.84
2018-06-08T19:04:06.751Z,57.08
2018-06-08T19:07:11.076Z,56.77
2018-06-08T19:10:15.344Z,57.98
2018-06-08T19:13:19.638Z,58.51
2018-06-08T19:16:24.055Z,58.95
2018-06-08T19:19:28.487Z,59.21
2018-06-08T19:22:32.924Z,59.66
2018-06-08T19:25:37.239Z,60.73
2018-06-08T19:28:41.589Z,61.13
2018-06-08T19:31:45.884Z,61.97
2018-06-08T19:34:50.160Z,62.88
2018-06-08T19:37:54.487Z,63.00
2018-06-08T19:40:58.884Z,63.54
2018-06-08T19:44:03.193Z,63.87
2018-06-08T19:47:07.518Z,63.37
2018-06-08T19:50:11.872Z,63.74
2018-06-08T19:53:16.146Z,64.22
2018-06-08T19:56:20.460Z,63.74
2018-06-08T19:59:24.832Z,64.29
2018-06-08T20:02:29.237Z,63.90
2018-06-08T20:05:33.642Z,64.44
2018-06-08T20:08:38.092Z,64.43
2018-06-08T20:11:42.478Z,63.73
2018-06-08T20:14:46.814Z,63.76
2018-06-08T20:17:51.137Z,64.24
2018-06-08T20:20:55.436Z,64.58
2018-06-08T20:23:59.771Z,64.67
2018-06-08T20:27:04.085Z,65.61
2018-06-08T20:30:08.433Z,65.55
2018-06-08T20:33:12.837Z,67.03
2018-06-08T20:36:17.152Z,66.88
2018-06-08T20:39:21.261Z,67.22
2018-06-08T20:42:26.334Z,68.03
2018-06-08T20:45:31.784Z,68.55
2018-06-08T20:48:36.381Z,68.56
2018-06-08T20:51:40.681Z,68.37
2018-06-08T20:54:44.732Z,69.18
2018-06-08T20:58:01.253Z,69.24
2018-06-08T21:01:05.658Z,69.19
2018-06-08T21:04:09.971Z,70.37
2018-06-08T21:07:14.373Z,69.78
2018-06-08T21:10:18.641Z,70.60
2018-06-08T21:13:22.941Z,70.46
2018-06-08T21:16:27.220Z,69.99
2018-06-08T21:19:31.484Z,70.72
2018-06-08T21:22:35.800Z,71.24
2018-06-08T21:25:40.113Z,70.67
2018-06-08T21:28:44.391Z,70.58
2018-06-08T21:31:48.728Z,71.74
2018-06-08T21:34:53.018Z,71.70
2018-06-08T21:37:57.297Z,71.64
2018-06-08T21:41:01.653Z,72.84
2018-06-08T21:44:05.981Z,72.98
2018-06-08T21:47:10.248Z,73.26
2018-06-08T21:50:14.664Z,73.03
2018-06-08T21:53:18.895Z,73.31
2018-06-08T21:56:23.164Z,74.92
2018-06-08T21:59:27.479Z,75.25
2018-06-08T22:02:31.775Z,75.76
2018-06-08T22:05:36.103Z,75.82
2018-06-08T22:08:40.420Z,76.28
2018-06-08T22:11:45.001Z,77.25
2018-06-08T22:14:49.293Z,77.47
2018-06-08T22:17:53.565Z,77.13
2018-06-08T22:20:58.142Z,76.67
2018-06-08T22:24:02.417Z,76.83
2018-06-08T22:27:06.755Z,76.21
2018-06-08T22:30:11.069Z,76.85
2018-06-08T22:33:15.409Z,77.39
2018-06-08T22:36:19.726Z,77.33
2018-06-08T22:39:24.000Z,77.26
2018-06-08T22:42:28.305Z,77.40
2018-06-08T22:45:32.599Z,77.53
2018-06-08T22:48:37.138Z,77.67
2018-06-08T22:51:41.505Z,78.01
2018-06-08T22:54:45.862Z,78.87
2018-06-08T22:57:50.145Z,79.37
2018-06-08T23:00:54.512Z,79.07
2018-06-08T23:03:58.793Z,79.48
2018-06-08T23:07:03.203Z,79.64
2018-06-08T23:10:07.539Z,78.51
2018-06-08T23:13:12.421Z,78.84
2018-06-08T23:16:16.803Z,79.23
2018-06-08T23:19:21.055Z,79.48
2018-06-08T23:22:25.318Z,80.27
2018-06-08T23:25:29.666Z,80.02
2018-06-08T23:28:33.923Z,80.33
2018-06-08T23:31:38.279Z,80.47
2018-06-08T23:34:42.540Z,80.13
2018-06-08T23:37:46.806Z,79.72
2018-06-08T23:40:51.236Z,78.90
2018-06-08T23:43:55.543Z,79.67
2018-06-08T23:46:59.867Z,80.26
2018-06-08T23:50:04.197Z,80.09
2018-06-08T23:53:08.520Z,79.48
2018-06-08T23:56:12.793Z,79.74
2018-06-08T23:59:17.042Z,80.84
